createdAt,value
2022-09-12T00:01:29.326Z,1.00
2022-09-12T00:04:02.171Z,1.00
2022-09-12T00:09:09.933Z,1.00
2022-09-12T00:11:41.264Z,0.80
2022-09-12T00:14:13.248Z,0.80
2022-09-12T00:16:42.142Z,0.80
2022-09-12T00:19:11.863Z,0.90
2022-09-12T00:21:40.905Z,0.80
2022-09-12T00:24:10.715Z,0.80
2022-09-12T00:26:39.393Z,1.10
2022-09-12T00:29:07.495Z,0.70
2022-09-12T00:31:35.687Z,0.90
2022-09-12T00:34:04.167Z,0.70
2022-09-12T00:36:32.296Z,0.90
2022-09-12T00:39:00.493Z,0.70
2022-09-12T00:41:32.904Z,0.70
2022-09-12T00:44:05.732Z,1.00
2022-09-12T00:49:46.440Z,0.80
2022-09-12T00:52:37.867Z,1.00
2022-09-12T00:55:19.464Z,0.90
2022-09-12T00:58:05.072Z,0.80
2022-09-12T01:00:33.816Z,0.60
2022-09-12T01:03:13.768Z,0.80
2022-09-12T01:05:53.652Z,0.80
2022-09-12T01:08:23.128Z,0.90
2022-09-12T01:10:51.318Z,0.60
2022-09-12T01:13:19.752Z,0.80
2022-09-12T01:15:47.932Z,0.70
2022-09-12T01:18:45.412Z,1.10
2022-09-12T01:21:43.587Z,0.80
2022-09-12T01:24:26.468Z,1.00
2022-09-12T01:27:19.197Z,0.70
2022-09-12T01:30:21.433Z,1.00
2022-09-12T01:33:14.434Z,0.70
2022-09-12T01:36:25.951Z,0.90
2022-09-12T01:39:27.158Z,0.90
2022-09-12T01:42:35.124Z,1.20
2022-09-12T01:45:24.709Z,1.10
2022-09-12T01:48:08.840Z,1.20
2022-09-12T01:50:46.699Z,1.10
2022-09-12T01:53:25.921Z,1.00
2022-09-12T01:56:22.103Z,1.10
2022-09-12T01:59:01.988Z,1.00
2022-09-12T02:01:39.044Z,1.00
2022-09-12T02:04:19.143Z,0.90
2022-09-12T02:06:52.372Z,1.00
2022-09-12T02:09:36.495Z,1.10
2022-09-12T02:12:09.056Z,1.20
2022-09-12T02:14:42.991Z,1.00
2022-09-12T02:17:15.343Z,1.20
2022-09-12T02:19:51.545Z,1.30
2022-09-12T02:22:22.853Z,1.00
2022-09-12T02:24:57.595Z,1.20
2022-09-12T02:27:37.916Z,1.40
2022-09-12T02:30:09.116Z,1.40
2022-09-12T02:33:02.148Z,1.00
2022-09-12T02:35:47.264Z,1.30
2022-09-12T02:38:45.963Z,1.40
2022-09-12T02:41:20.048Z,1.10
2022-09-12T02:43:50.543Z,1.30
2022-09-12T02:46:43.865Z,1.20
2022-09-12T02:49:12.080Z,1.20
2022-09-12T02:51:40.664Z,1.40
2022-09-12T02:54:10.109Z,1.40
2022-09-12T02:56:44.239Z,1.30
2022-09-12T02:59:19.590Z,1.50
2022-09-12T03:02:29.364Z,1.40
2022-09-12T03:05:35.045Z,1.40
2022-09-12T03:08:19.069Z,1.80
2022-09-12T03:11:13.957Z,2.00
2022-09-12T03:13:58.420Z,2.40
2022-09-12T03:16:44.673Z,2.30
2022-09-12T03:19:40.560Z,2.30
2022-09-12T03:22:38.241Z,2.70
2022-09-12T03:25:24.003Z,3.10
2022-09-12T03:27:59.844Z,2.40
2022-09-12T03:30:28.117Z,2.90
2022-09-12T03:32:56.235Z,2.50
2022-09-12T03:35:25.736Z,3.00
2022-09-12T03:37:54.020Z,2.40
2022-09-12T03:40:22.136Z,2.40
2022-09-12T03:42:50.252Z,2.60
2022-09-12T03:45:18.456Z,3.10
2022-09-12T03:47:46.638Z,2.80
2022-09-12T03:50:14.771Z,2.70
2022-09-12T03:52:42.902Z,2.60
2022-09-12T03:55:11.099Z,2.70
2022-09-12T03:57:39.393Z,2.60
2022-09-12T04:00:08.765Z,3.00
2022-09-12T04:02:43.595Z,2.40
2022-09-12T04:05:11.784Z,2.80
2022-09-12T04:07:40.064Z,3.10
2022-09-12T04:10:09.769Z,2.90
2022-09-12T04:12:39.627Z,3.00
2022-09-12T04:15:09.361Z,3.10
2022-09-12T04:17:37.530Z,3.30
2022-09-12T04:20:06.672Z,3.20
2022-09-12T04:22:34.985Z,3.00
2022-09-12T04:25:03.597Z,2.60
2022-09-12T04:27:31.774Z,3.30
2022-09-12T04:30:02.374Z,3.50
2022-09-12T04:32:31.537Z,2.90
2022-09-12T04:34:59.741Z,2.50
2022-09-12T04:37:27.876Z,2.70
2022-09-12T04:39:58.075Z,2.30
2022-09-12T04:42:26.295Z,2.40
2022-09-12T04:44:54.803Z,2.80
2022-09-12T04:47:23.269Z,2.50
2022-09-12T04:49:51.427Z,3.00
2022-09-12T04:52:19.586Z,2.50
2022-09-12T04:54:47.691Z,2.40
2022-09-12T04:57:16.099Z,2.70
2022-09-12T04:59:44.276Z,2.40
2022-09-12T05:02:12.475Z,2.50
2022-09-12T05:04:40.749Z,2.20
2022-09-12T05:07:09.162Z,2.70
2022-09-12T05:09:37.269Z,2.40
2022-09-12T05:12:06.121Z,2.50
2022-09-12T05:14:35.079Z,2.40
2022-09-12T05:17:06.150Z,2.50
2022-09-12T05:19:34.910Z,2.20
2022-09-12T05:22:05.110Z,2.50
2022-09-12T05:24:35.196Z,2.70
2022-09-12T05:27:04.797Z,3.00
2022-09-12T05:29:34.117Z,2.60
2022-09-12T05:32:03.928Z,2.50
2022-09-12T05:34:32.094Z,2.80
2022-09-12T05:37:00.257Z,3.20
2022-09-12T05:39:28.392Z,2.90
2022-09-12T05:41:56.506Z,3.20
2022-09-12T05:44:24.985Z,2.50
2022-09-12T05:46:53.722Z,2.80
2022-09-12T05:49:21.886Z,2.90
2022-09-12T05:51:51.672Z,3.00
2022-09-12T05:54:20.691Z,2.90
2022-09-12T05:56:49.245Z,3.10
2022-09-12T05:59:22.049Z,3.10
2022-09-12T06:01:50.270Z,3.10
2022-09-12T06:04:18.716Z,2.90
2022-09-12T06:06:47.020Z,3.70
2022-09-12T06:09:17.552Z,3.60
2022-09-12T06:11:46.588Z,3.50
2022-09-12T06:14:18.023Z,3.20
2022-09-12T06:16:47.413Z,2.90
2022-09-12T06:19:22.398Z,3.30
2022-09-12T06:21:51.744Z,2.60
2022-09-12T06:24:21.591Z,3.30
2022-09-12T06:26:54.807Z,2.90
2022-09-12T06:29:24.208Z,2.60
2022-09-12T06:31:52.356Z,3.00
2022-09-12T06:34:20.752Z,2.90
2022-09-12T06:36:49.583Z,3.50
2022-09-12T06:39:23.152Z,3.10
2022-09-12T06:41:52.296Z,2.80
2022-09-12T06:44:30.566Z,3.50
2022-09-12T06:46:59.270Z,2.60
2022-09-12T06:49:27.386Z,2.70
2022-09-12T06:51:55.489Z,2.50
2022-09-12T06:54:23.619Z,2.70
2022-09-12T06:56:52.114Z,2.80
2022-09-12T06:59:20.286Z,2.50
2022-09-12T07:01:48.593Z,2.70
2022-09-12T07:04:16.845Z,2.80
2022-09-12T07:06:45.006Z,2.50
2022-09-12T07:09:18.019Z,2.50
2022-09-12T07:14:15.560Z,2.40
2022-09-12T07:16:44.432Z,2.30
2022-09-12T07:19:12.585Z,2.20
2022-09-12T07:21:41.512Z,3.30
2022-09-12T07:24:11.626Z,2.60
2022-09-12T07:26:42.415Z,2.90
2022-09-12T07:32:06.153Z,2.50
2022-09-12T07:34:35.188Z,2.70
2022-09-12T07:37:03.512Z,2.30
2022-09-12T07:39:32.521Z,2.30
2022-09-12T07:42:00.627Z,2.30
2022-09-12T07:44:30.527Z,2.00
2022-09-12T07:46:58.691Z,2.30
2022-09-12T07:49:26.854Z,2.30
2022-09-12T07:51:54.964Z,2.10
2022-09-12T07:54:23.539Z,2.40
2022-09-12T07:56:51.984Z,2.20
2022-09-12T07:59:35.720Z,2.30
2022-09-12T08:02:17.142Z,2.40
2022-09-12T08:04:48.750Z,2.00
2022-09-12T08:07:19.198Z,2.40
2022-09-12T08:09:47.706Z,2.50
2022-09-12T08:12:17.830Z,2.70
2022-09-12T08:14:46.580Z,3.10
2022-09-12T08:17:15.687Z,2.20
2022-09-12T08:19:44.950Z,2.80
2022-09-12T08:22:13.782Z,2.30
2022-09-12T08:24:42.500Z,2.50
2022-09-12T08:27:10.815Z,2.80
2022-09-12T08:29:38.967Z,2.50
2022-09-12T08:32:07.295Z,3.10
2022-09-12T08:34:35.392Z,2.00
2022-09-12T08:37:04.170Z,1.90
2022-09-12T08:39:33.212Z,2.30
2022-09-12T08:42:05.031Z,2.10
2022-09-12T08:44:47.226Z,2.20
2022-09-12T08:47:22.043Z,2.40
2022-09-12T08:50:08.743Z,2.10
2022-09-12T08:53:04.568Z,2.40
2022-09-12T08:55:41.363Z,2.30
2022-09-12T08:58:20.848Z,2.80
2022-09-12T09:01:18.152Z,2.50
2022-09-12T09:04:47.769Z,2.30
2022-09-12T09:07:50.447Z,2.40
2022-09-12T09:10:43.938Z,2.70
2022-09-12T09:14:15.021Z,2.70
2022-09-12T09:16:46.479Z,3.20
2022-09-12T09:19:37.631Z,2.40
2022-09-12T09:22:18.949Z,2.40
2022-09-12T09:24:55.316Z,2.80
2022-09-12T09:27:41.965Z,2.60
2022-09-12T09:30:17.469Z,2.90
2022-09-12T09:32:51.711Z,2.20
2022-09-12T09:35:48.882Z,2.50
2022-09-12T09:38:46.177Z,2.20
2022-09-12T09:41:49.759Z,2.80
2022-09-12T09:44:18.388Z,3.10
2022-09-12T09:46:51.076Z,2.60
2022-09-12T09:49:19.874Z,2.70
2022-09-12T09:51:48.565Z,2.70
2022-09-12T09:54:54.357Z,2.50
2022-09-12T09:57:34.483Z,2.40
2022-09-12T10:00:27.210Z,2.50
2022-09-12T10:03:39.208Z,2.60
2022-09-12T10:06:38.059Z,2.60
2022-09-12T10:09:19.900Z,2.60
2022-09-12T10:11:49.579Z,2.60
2022-09-12T10:14:40.509Z,2.60
2022-09-12T10:17:34.550Z,2.50
2022-09-12T10:20:21.189Z,2.70
2022-09-12T10:22:50.602Z,2.60
2022-09-12T10:25:20.679Z,2.50
2022-09-12T10:28:00.339Z,3.90
2022-09-12T10:30:28.925Z,2.70
2022-09-12T10:33:08.344Z,2.60
2022-09-12T10:35:48.830Z,2.10
2022-09-12T10:38:24.931Z,2.10
2022-09-12T10:41:07.425Z,2.30
2022-09-12T10:43:40.789Z,2.90
2022-09-12T10:46:14.877Z,2.50
2022-09-12T10:48:48.781Z,2.40
2022-09-12T10:51:25.962Z,2.10
2022-09-12T10:54:06.542Z,2.30
2022-09-12T10:57:17.028Z,2.00
2022-09-12T11:00:15.318Z,2.10
2022-09-12T11:03:02.375Z,2.00
2022-09-12T11:05:51.255Z,1.90
2022-09-12T11:08:51.204Z,2.20
2022-09-12T11:11:39.274Z,2.10
2022-09-12T11:14:52.166Z,2.10
2022-09-12T11:17:23.446Z,1.90
2022-09-12T11:19:51.526Z,2.30
2022-09-12T11:22:32.124Z,2.00
2022-09-12T11:25:27.297Z,2.30
2022-09-12T11:28:22.094Z,1.90
2022-09-12T11:31:20.004Z,2.00
2022-09-12T11:33:56.511Z,2.00
2022-09-12T11:36:55.773Z,1.90
2022-09-12T11:39:39.909Z,2.10
2022-09-12T11:42:18.731Z,2.10
2022-09-12T11:44:54.286Z,2.20
2022-09-12T11:47:25.116Z,1.80
2022-09-12T11:49:54.850Z,2.10
2022-09-12T11:52:25.241Z,2.10
2022-09-12T11:55:18.639Z,2.10
2022-09-12T11:57:59.125Z,2.00
2022-09-12T12:00:37.190Z,1.70
2022-09-12T12:03:11.110Z,2.20
2022-09-12T12:05:58.217Z,2.20
2022-09-12T12:08:30.073Z,2.20
2022-09-12T12:11:04.662Z,2.00
2022-09-12T12:13:48.384Z,1.60
2022-09-12T12:16:32.181Z,1.70
2022-09-12T12:19:10.607Z,2.30
2022-09-12T12:21:52.312Z,2.20
2022-09-12T12:24:29.094Z,2.00
2022-09-12T12:27:02.329Z,1.80
2022-09-12T12:29:44.560Z,2.20
2022-09-12T12:32:20.536Z,1.90
2022-09-12T12:34:48.766Z,2.00
2022-09-12T12:37:25.552Z,2.00
2022-09-12T12:40:21.955Z,2.20
2022-09-12T12:42:50.590Z,2.00
2022-09-12T12:45:18.591Z,2.00
2022-09-12T12:48:03.116Z,1.80
2022-09-12T12:50:33.385Z,2.00
2022-09-12T12:53:05.363Z,1.90
2022-09-12T12:55:42.430Z,1.90
2022-09-12T12:58:30.649Z,1.70
2022-09-12T13:01:23.959Z,1.80
2022-09-12T13:06:39.567Z,1.70
2022-09-12T13:09:20.298Z,1.60
2022-09-12T13:12:04.437Z,1.80
2022-09-12T13:14:59.947Z,1.80
2022-09-12T13:18:01.841Z,1.80
2022-09-12T13:20:37.875Z,1.70
2022-09-12T13:23:05.992Z,1.60
2022-09-12T13:25:37.001Z,1.80
2022-09-12T13:28:11.401Z,1.70
2022-09-12T13:30:44.226Z,1.70
2022-09-12T13:33:52.273Z,2.00
2022-09-12T13:37:06.265Z,1.70
2022-09-12T13:39:58.786Z,1.70
2022-09-12T13:42:46.477Z,1.60
2022-09-12T13:45:24.533Z,2.10
2022-09-12T13:48:02.001Z,1.50
2022-09-12T13:50:42.893Z,2.30
2022-09-12T13:53:19.586Z,1.70
2022-09-12T13:55:53.557Z,1.50
2022-09-12T13:58:26.363Z,1.90
2022-09-12T14:04:10.129Z,1.50
2022-09-12T14:06:51.512Z,1.60
2022-09-12T14:09:26.113Z,1.60
2022-09-12T14:11:54.504Z,1.70
2022-09-12T14:14:29.516Z,1.90
2022-09-12T14:17:00.676Z,1.50
2022-09-12T14:19:29.405Z,1.40
2022-09-12T14:21:57.875Z,1.30
2022-09-12T14:24:26.425Z,1.60
2022-09-12T14:26:56.846Z,1.30
2022-09-12T14:29:26.089Z,1.40
2022-09-12T14:32:05.121Z,1.50
2022-09-12T14:34:33.197Z,1.60
2022-09-12T14:37:07.020Z,1.80
2022-09-12T14:39:43.514Z,1.40
2022-09-12T14:42:21.451Z,1.40
2022-09-12T14:45:01.095Z,1.50
2022-09-12T14:47:40.444Z,1.40
2022-09-12T14:50:31.756Z,1.30
2022-09-12T14:53:21.380Z,1.40
2022-09-12T14:56:21.610Z,1.30
2022-09-12T14:58:50.608Z,1.50
2022-09-12T15:01:18.628Z,1.40
2022-09-12T15:03:49.987Z,1.70
2022-09-12T15:06:45.556Z,1.60
2022-09-12T15:09:14.347Z,1.40
2022-09-12T15:11:42.407Z,1.70
2022-09-12T15:14:14.844Z,1.80
2022-09-12T15:19:11.944Z,1.50
2022-09-12T15:21:40.185Z,1.40
2022-09-12T15:24:09.366Z,1.60
2022-09-12T15:26:37.476Z,1.60
2022-09-12T15:29:05.600Z,1.60
2022-09-12T15:31:33.840Z,1.70
2022-09-12T15:34:03.059Z,1.80
2022-09-12T15:36:31.619Z,1.90
2022-09-12T15:38:59.832Z,1.80
2022-09-12T15:41:37.045Z,1.50
2022-09-12T15:44:13.199Z,1.50
2022-09-12T15:46:42.210Z,1.80
2022-09-12T15:49:10.396Z,1.80
2022-09-12T15:51:38.518Z,1.40
2022-09-12T15:54:06.645Z,1.40
2022-09-12T15:56:34.778Z,1.70
2022-09-12T15:59:03.820Z,1.50
2022-09-12T16:01:32.081Z,1.60
2022-09-12T16:04:03.199Z,1.90
2022-09-12T16:06:37.224Z,1.90
2022-09-12T16:09:05.700Z,2.10
2022-09-12T16:11:34.390Z,1.90
2022-09-12T16:14:05.571Z,2.20
2022-09-12T16:16:34.903Z,2.30
2022-09-12T16:19:03.753Z,2.30
2022-09-12T16:21:32.032Z,2.00
2022-09-12T16:24:00.174Z,2.10
2022-09-12T16:26:28.707Z,2.20
2022-09-12T16:28:58.854Z,1.80
2022-09-12T16:31:27.875Z,2.00
2022-09-12T16:33:56.013Z,2.00
2022-09-12T16:36:24.268Z,1.60
2022-09-12T16:38:54.251Z,1.90
2022-09-12T16:41:25.205Z,2.00
2022-09-12T16:43:54.372Z,2.10
2022-09-12T16:46:26.322Z,2.00
2022-09-12T16:48:57.633Z,1.80
2022-09-12T16:51:31.223Z,2.20
2022-09-12T16:53:59.621Z,2.20
2022-09-12T16:56:28.098Z,2.30
2022-09-12T16:58:56.272Z,2.00
2022-09-12T17:01:26.692Z,1.70
2022-09-12T17:03:58.761Z,2.20
2022-09-12T17:06:28.349Z,2.60
2022-09-12T17:09:01.155Z,2.40
2022-09-12T17:11:36.963Z,2.30
2022-09-12T17:14:08.935Z,2.70
2022-09-12T17:16:48.027Z,2.10
2022-09-12T17:19:29.942Z,2.60
2022-09-12T17:21:58.384Z,2.60
2022-09-12T17:24:26.804Z,2.60
2022-09-12T17:26:55.240Z,2.60
2022-09-12T17:29:23.360Z,2.80
2022-09-12T17:31:51.575Z,2.70
2022-09-12T17:34:19.708Z,2.80
2022-09-12T17:36:48.583Z,2.90
2022-09-12T17:39:16.778Z,2.50
2022-09-12T17:41:46.248Z,2.50
2022-09-12T17:44:15.609Z,2.70
2022-09-12T17:46:45.166Z,3.10
2022-09-12T17:49:17.110Z,3.00
2022-09-12T17:51:45.523Z,4.10
2022-09-12T17:54:17.530Z,3.10
2022-09-12T17:56:49.036Z,4.20
2022-09-12T17:59:24.853Z,3.80
2022-09-12T18:02:11.664Z,3.10
2022-09-12T18:04:48.693Z,3.20
2022-09-12T18:07:19.713Z,3.50
2022-09-12T18:09:50.685Z,3.30
2022-09-12T18:12:20.071Z,3.50
2022-09-12T18:14:48.217Z,3.20
2022-09-12T18:17:17.084Z,3.00
2022-09-12T18:19:45.514Z,2.60
2022-09-12T18:22:13.612Z,3.20
2022-09-12T18:24:41.788Z,3.40
2022-09-12T18:27:09.994Z,4.50
2022-09-12T18:29:38.152Z,3.60
2022-09-12T18:32:06.511Z,3.50
2022-09-12T18:34:35.078Z,3.60
2022-09-12T18:37:05.403Z,3.10
2022-09-12T18:39:33.579Z,3.50
2022-09-12T18:42:01.695Z,2.70
2022-09-12T18:44:29.977Z,3.10
2022-09-12T18:46:58.077Z,3.00
2022-09-12T18:49:26.162Z,3.10
2022-09-12T18:51:54.269Z,2.50
2022-09-12T18:54:22.515Z,3.00
2022-09-12T18:56:50.683Z,2.30
2022-09-12T18:59:18.792Z,2.70
2022-09-12T19:01:47.276Z,2.50
2022-09-12T19:04:16.592Z,2.80
2022-09-12T19:06:48.157Z,2.20
2022-09-12T19:09:20.754Z,2.00
2022-09-12T19:11:49.954Z,2.20
2022-09-12T19:14:26.067Z,2.30
2022-09-12T19:16:54.361Z,2.40
2022-09-12T19:19:22.635Z,2.30
2022-09-12T19:21:50.736Z,2.30
2022-09-12T19:24:19.486Z,2.60
2022-09-12T19:26:49.801Z,2.60
2022-09-12T19:29:18.272Z,2.40
2022-09-12T19:31:46.642Z,2.60
2022-09-12T19:34:16.140Z,2.50
2022-09-12T19:36:45.868Z,2.80
2022-09-12T19:39:17.904Z,2.30
2022-09-12T19:41:46.639Z,3.20
2022-09-12T19:44:14.771Z,2.50
2022-09-12T19:46:43.080Z,2.30
2022-09-12T19:49:13.007Z,2.60
2022-09-12T19:51:41.803Z,2.70
2022-09-12T19:54:09.984Z,2.10
2022-09-12T19:56:38.276Z,2.00
2022-09-12T19:59:06.507Z,2.30
2022-09-12T20:01:37.197Z,2.40
2022-09-12T20:04:06.880Z,2.70
2022-09-12T20:06:35.440Z,2.40
2022-09-12T20:09:04.002Z,2.30
2022-09-12T20:11:32.272Z,2.20
2022-09-12T20:14:00.460Z,2.50
2022-09-12T20:16:29.921Z,2.40
2022-09-12T20:19:08.624Z,2.00
2022-09-12T20:21:37.351Z,2.40
2022-09-12T20:24:07.382Z,2.60
2022-09-12T20:26:35.634Z,2.30
2022-09-12T20:29:05.851Z,2.60
2022-09-12T20:31:35.518Z,2.70
2022-09-12T20:34:04.951Z,2.50
2022-09-12T20:36:34.180Z,2.40
2022-09-12T20:39:02.789Z,2.70
2022-09-12T20:41:36.090Z,2.90
2022-09-12T20:44:04.272Z,2.40
2022-09-12T20:46:33.171Z,2.40
2022-09-12T20:49:01.367Z,2.40
2022-09-12T20:51:30.478Z,2.50
2022-09-12T20:54:01.669Z,2.10
2022-09-12T20:56:32.968Z,2.10
2022-09-12T20:59:01.328Z,2.80
2022-09-12T21:01:31.588Z,2.30
2022-09-12T21:04:01.253Z,2.60
2022-09-12T21:06:31.350Z,2.50
2022-09-12T21:09:00.646Z,2.70
2022-09-12T21:11:29.309Z,2.10
2022-09-12T21:13:58.025Z,2.20
2022-09-12T21:16:26.692Z,2.40
2022-09-12T21:18:59.673Z,2.60
2022-09-12T21:21:27.876Z,2.50
2022-09-12T21:24:03.045Z,2.70
2022-09-12T21:26:31.852Z,2.60
2022-09-12T21:29:00.092Z,2.70
2022-09-12T21:31:28.314Z,2.50
2022-09-12T21:33:56.493Z,2.40
2022-09-12T21:36:25.286Z,2.60
2022-09-12T21:38:53.422Z,2.30
2022-09-12T21:41:21.491Z,2.30
2022-09-12T21:43:49.902Z,2.40
2022-09-12T21:46:18.674Z,2.00
2022-09-12T21:48:46.824Z,2.90
2022-09-12T21:51:14.923Z,2.40
2022-09-12T21:53:42.983Z,2.30
2022-09-12T21:56:11.171Z,2.60
2022-09-12T21:58:39.335Z,2.30
2022-09-12T22:01:09.510Z,2.40
2022-09-12T22:03:37.825Z,2.50
2022-09-12T22:06:07.041Z,3.10
2022-09-12T22:08:37.462Z,2.60
2022-09-12T22:11:09.647Z,2.40
2022-09-12T22:13:42.759Z,2.60
2022-09-12T22:18:39.337Z,2.20
2022-09-12T22:21:15.832Z,2.50
2022-09-12T22:24:03.373Z,2.50
2022-09-12T22:26:35.062Z,2.50
2022-09-12T22:29:03.509Z,2.50
2022-09-12T22:31:32.032Z,2.70
2022-09-12T22:34:00.174Z,2.40
2022-09-12T22:36:31.122Z,2.10
2022-09-12T22:39:00.393Z,2.20
2022-09-12T22:41:28.914Z,2.50
2022-09-12T22:43:57.408Z,2.40
2022-09-12T22:46:26.297Z,2.40
2022-09-12T22:48:55.832Z,2.30
2022-09-12T22:51:24.029Z,2.50
2022-09-12T22:53:52.534Z,2.30
2022-09-12T22:56:21.024Z,2.20
2022-09-12T22:58:49.984Z,2.20
2022-09-12T23:01:18.892Z,2.00
2022-09-12T23:03:47.080Z,2.00
2022-09-12T23:06:15.372Z,2.10
2022-09-12T23:08:43.855Z,2.00
2022-09-12T23:11:15.616Z,2.40
2022-09-12T23:13:46.796Z,2.20
2022-09-12T23:16:26.337Z,2.50
2022-09-12T23:18:54.417Z,2.50
2022-09-12T23:21:22.597Z,2.50
2022-09-12T23:23:51.276Z,2.60
2022-09-12T23:26:28.194Z,2.30
2022-09-12T23:29:02.314Z,2.40
2022-09-12T23:31:32.404Z,2.30
2022-09-12T23:34:03.445Z,2.80
2022-09-12T23:36:32.381Z,2.30
2022-09-12T23:39:01.138Z,2.60
2022-09-12T23:41:29.458Z,2.30
2022-09-12T23:43:57.839Z,2.30
2022-09-12T23:46:25.888Z,2.40
2022-09-12T23:48:54.087Z,2.80
2022-09-12T23:51:22.319Z,2.70
2022-09-12T23:53:50.551Z,2.50
2022-09-12T23:56:18.664Z,2.30
2022-09-12T23:58:46.763Z,2.60
